Time;durP1;ratioP1;P1;durP2;ratioP2;P2;SDS_P1;SDS_P2;PMS_P1;PMS_P2;Temp;Humidity;BMP_temperature;BMP_pressure;BME280_temperature;BME280_humidity;BME280_pressure;Samples;Min_cycle;Max_cycle;Signal;HPM_P1;HPM_P2
2022/11/07 00:01:17;;;;;;;7.90;4.93;;;10.30;99.90;;;;;;4898085;29;20131;-79
2022/11/07 00:03:43;;;;;;;6.88;4.75;;;10.10;99.90;;;;;;4885464;29;20102;-73
2022/11/07 00:06:09;;;;;;;6.88;4.60;;;10.10;99.90;;;;;;4901658;29;20075;-75
2022/11/07 00:08:35;;;;;;;7.05;4.53;;;10.80;99.90;;;;;;4897238;29;20044;-74
2022/11/07 00:11:01;;;;;;;7.82;4.38;;;9.90;99.90;;;;;;4902344;29;20124;-72
2022/11/07 00:13:27;;;;;;;;;;;11.10;99.90;;;;;;4889185;29;20067;-73
2022/11/07 00:16:01;;;;;;;7.00;4.72;;;11.20;99.90;;;;;;4893265;29;20348;-73
2022/11/07 00:18:27;;;;;;;8.77;4.68;;;10.30;99.90;;;;;;4910348;29;20171;-73
2022/11/07 00:20:52;;;;;;;6.07;4.30;;;10.00;99.90;;;;;;4901276;29;20504;-74
2022/11/07 00:23:18;;;;;;;6.55;4.45;;;10.40;99.90;;;;;;4932334;29;20040;-75
2022/11/07 00:25:44;;;;;;;7.25;4.43;;;10.70;99.90;;;;;;4918095;29;20122;-73
2022/11/07 00:28:09;;;;;;;8.13;4.18;;;10.30;99.90;;;;;;4888030;29;20048;-74
2022/11/07 00:30:35;;;;;;;8.15;4.38;;;11.30;99.90;;;;;;4880491;29;20048;-73
2022/11/07 00:33:01;;;;;;;7.68;4.50;;;10.90;99.90;;;;;;4864935;29;20048;-74
2022/11/07 00:35:27;;;;;;;8.40;4.63;;;10.90;99.90;;;;;;4913746;29;20044;-72
2022/11/07 00:37:54;;;;;;;6.75;4.15;;;10.10;99.90;;;;;;4900743;29;20048;-73
2022/11/07 00:40:20;;;;;;;9.02;4.50;;;11.30;99.90;;;;;;4883704;29;20086;-74
2022/11/07 00:42:46;;;;;;;6.95;4.22;;;11.00;99.90;;;;;;4914373;29;20450;-73
2022/11/07 00:45:12;;;;;;;6.05;3.30;;;10.30;99.90;;;;;;4914669;29;20060;-72
2022/11/07 00:47:38;;;;;;;6.80;4.10;;;10.90;99.90;;;;;;4898818;29;20170;-74
2022/11/07 00:50:05;;;;;;;7.35;4.20;;;10.10;99.90;;;;;;4883230;29;20072;-72
2022/11/07 00:52:31;;;;;;;7.22;4.07;;;10.50;99.90;;;;;;4898925;29;20127;-74
2022/11/07 00:54:57;;;;;;;8.65;4.13;;;10.30;99.90;;;;;;4884174;29;20124;-72
2022/11/07 00:57:22;;;;;;;7.40;4.20;;;10.60;99.90;;;;;;4898957;29;20436;-74
2022/11/07 00:59:48;;;;;;;7.32;3.75;;;10.60;99.90;;;;;;4898520;29;20123;-72
2022/11/07 01:02:14;;;;;;;10.00;4.35;;;10.10;99.90;;;;;;4898049;29;20051;-72
2022/11/07 01:07:24;;;;;;;9.85;4.57;;;10.30;99.90;;;;;;4913228;29;20076;-74
2022/11/07 01:09:49;;;;;;;7.57;3.97;;;11.30;99.90;;;;;;4883888;29;20083;-72
2022/11/07 01:12:15;;;;;;;9.48;4.00;;;10.10;99.90;;;;;;4914570;29;20393;-73
2022/11/07 01:14:41;;;;;;;8.88;4.00;;;10.30;99.90;;;;;;4914539;29;20457;-72
2022/11/07 01:17:07;;;;;;;7.65;3.97;;;10.20;99.90;;;;;;4898299;29;20138;-74
2022/11/07 01:19:32;;;;;;;9.68;4.18;;;10.00;99.90;;;;;;4871765;29;20044;-72
2022/11/07 01:21:58;;;;;;;8.85;3.88;;;11.30;99.90;;;;;;4903802;29;20529;-73
2022/11/07 01:24:24;;;;;;;6.90;3.50;;;10.60;99.90;;;;;;4898458;29;20048;-74
2022/11/07 01:26:50;;;;;;;6.10;3.28;;;10.90;99.90;;;;;;4883898;29;20079;-73
2022/11/07 01:29:17;;;;;;;6.72;3.80;;;11.40;99.90;;;;;;4898976;29;20060;-73
2022/11/07 01:31:43;;;;;;;6.25;3.70;;;10.80;99.90;;;;;;4898656;29;20048;-80
2022/11/07 01:34:09;;;;;;;7.45;4.38;;;11.50;99.90;;;;;;4898815;29;20055;-79
2022/11/07 01:36:35;;;;;;;7.28;3.85;;;10.10;99.90;;;;;;4898599;29;20040;-72
2022/11/07 01:39:01;;;;;;;;;;;11.50;99.90;;;;;;4898367;29;20051;-72
2022/11/07 01:41:30;;;;;;;6.60;3.78;;;10.00;99.90;;;;;;4914118;29;20037;-71
2022/11/07 01:44:00;;;;;;;7.72;3.97;;;10.40;99.90;;;;;;4898909;29;20138;-71
2022/11/07 01:46:31;;;;;;;7.80;3.90;;;11.00;99.90;;;;;;4898637;29;20396;-72
2022/11/07 01:49:12;;;;;;;9.52;4.38;;;10.80;99.90;;;;;;4898120;29;20062;-70
2022/11/07 01:51:57;;;;;;;8.32;4.18;;;11.10;99.90;;;;;;4898025;29;20051;-71
2022/11/07 01:54:26;;;;;;;8.48;3.80;;;10.00;99.90;;;;;;4882524;29;20126;-71
2022/11/07 01:56:55;;;;;;;7.20;3.53;;;9.90;99.90;;;;;;4892565;29;20044;-72
2022/11/07 01:59:25;;;;;;;10.52;4.00;;;9.90;99.90;;;;;;4916888;29;20054;-71
2022/11/07 02:01:51;;;;;;;7.53;3.55;;;10.40;99.90;;;;;;4903219;29;20040;-72
2022/11/07 02:04:22;;;;;;;9.88;3.83;;;10.80;99.90;;;;;;4901823;29;20044;-72
2022/11/07 02:06:54;;;;;;;9.32;3.70;;;11.30;99.90;;;;;;4899954;29;20099;-72
2022/11/07 02:09:20;;;;;;;5.13;3.40;;;10.10;99.90;;;;;;4901249;29;20396;-71
2022/11/07 02:11:46;;;;;;;8.90;3.90;;;10.10;99.90;;;;;;4895999;29;20071;-73
2022/11/07 02:14:16;;;;;;;6.35;3.75;;;10.20;99.90;;;;;;4896161;29;20048;-72
2022/11/07 02:16:42;;;;;;;5.65;2.92;;;11.30;99.90;;;;;;4882910;29;20746;-72
2022/11/07 02:19:21;;;;;;;11.70;3.65;;;10.60;99.90;;;;;;4878576;29;20131;-72
2022/11/07 02:22:00;;;;;;;6.95;3.50;;;10.90;99.90;;;;;;4895345;29;20036;-74
2022/11/07 02:24:30;;;;;;;7.78;3.50;;;11.30;99.90;;;;;;4894103;29;20047;-72
2022/11/07 02:26:57;;;;;;;8.30;3.03;;;10.30;99.90;;;;;;4900710;29;20488;-71
2022/11/07 02:29:25;;;;;;;9.68;3.33;;;10.40;99.90;;;;;;4863427;29;20096;-72
2022/11/07 02:32:08;;;;;;;7.07;3.20;;;11.30;99.90;;;;;;4892257;29;20051;-74
2022/11/07 02:34:34;;;;;;;6.03;3.17;;;10.40;99.90;;;;;;4895625;29;20121;-72
2022/11/07 02:37:02;;;;;;;9.73;3.67;;;11.20;99.90;;;;;;4896906;29;20140;-72
2022/11/07 02:39:28;;;;;;;6.82;2.60;;;10.30;99.90;;;;;;4894036;29;20044;-73
2022/11/07 02:41:56;;;;;;;7.35;3.03;;;10.90;99.90;;;;;;4860123;29;20053;-74
2022/11/07 02:44:22;;;;;;;5.55;2.40;;;10.90;99.90;;;;;;4866770;29;20059;-74
2022/11/07 02:46:48;;;;;;;6.68;2.42;;;10.30;99.90;;;;;;4890028;29;20400;-72
2022/11/07 02:49:14;;;;;;;7.25;2.72;;;10.30;99.90;;;;;;4909394;29;20051;-73
2022/11/07 02:51:40;;;;;;;8.27;2.33;;;10.90;99.90;;;;;;4912539;29;20047;-72
2022/11/07 02:54:05;;;;;;;5.45;2.20;;;10.30;99.90;;;;;;4881928;29;20111;-72
2022/11/07 02:56:31;;;;;;;7.82;2.67;;;10.30;99.90;;;;;;4912107;29;20044;-72
2022/11/07 02:58:57;;;;;;;8.30;2.47;;;11.00;99.90;;;;;;4897013;29;20476;-72
2022/11/07 03:01:23;;;;;;;8.43;2.85;;;10.30;99.90;;;;;;4912671;29;20098;-72
2022/11/07 03:03:50;;;;;;;9.20;2.65;;;10.40;99.90;;;;;;4912530;29;20048;-73
2022/11/07 03:06:21;;;;;;;8.05;2.60;;;10.50;99.90;;;;;;4894632;29;20044;-72
2022/11/07 03:08:47;;;;;;;6.40;2.33;;;10.40;99.90;;;;;;4896389;29;20048;-73
2022/11/07 03:11:18;;;;;;;10.30;2.65;;;11.00;99.90;;;;;;4897085;29;20055;-72
2022/11/07 03:13:45;;;;;;;6.53;2.10;;;11.30;99.90;;;;;;4896919;29;20428;-72
2022/11/07 03:16:13;;;;;;;6.80;2.40;;;11.30;99.90;;;;;;4879678;29;20036;-73
2022/11/07 03:18:38;;;;;;;5.38;2.00;;;11.20;99.90;;;;;;4881660;29;20517;-72
2022/11/07 03:21:05;;;;;;;4.68;1.98;;;11.00;99.90;;;;;;4874338;29;20040;-72
2022/11/07 03:23:32;;;;;;;7.43;2.58;;;10.20;99.90;;;;;;4884794;29;20047;-72
2022/11/07 03:25:57;;;;;;;3.45;1.90;;;11.00;99.90;;;;;;4884673;29;20392;-74
2022/11/07 03:28:23;;;;;;;5.25;2.67;;;11.20;99.90;;;;;;4916341;29;20055;-72
2022/11/07 03:30:49;;;;;;;7.03;3.15;;;10.80;99.90;;;;;;4899488;29;20122;-72
2022/11/07 03:33:15;;;;;;;8.10;2.67;;;10.30;99.90;;;;;;4881685;29;20040;-73
2022/11/07 03:35:42;;;;;;;8.43;2.47;;;10.40;99.90;;;;;;4883651;29;20505;-72
2022/11/07 03:38:08;;;;;;;6.50;2.53;;;10.40;99.90;;;;;;4899930;29;20062;-72
2022/11/07 03:40:34;;;;;;;6.38;2.47;;;10.50;99.90;;;;;;4883141;29;20049;-71
2022/11/07 03:43:00;;;;;;;7.30;2.83;;;11.30;99.90;;;;;;4899335;29;20052;-72
2022/11/07 03:45:26;;;;;;;4.95;2.20;;;11.30;99.90;;;;;;4897979;29;20669;-72
2022/11/07 03:47:52;;;;;;;5.13;2.10;;;10.30;99.90;;;;;;4916446;29;20048;-72
2022/11/07 03:50:20;;;;;;;6.22;2.13;;;10.30;99.90;;;;;;4895456;29;20135;-72
2022/11/07 03:52:46;;;;;;;6.22;2.00;;;11.30;99.90;;;;;;4891133;29;20112;-73
2022/11/07 03:55:14;;;;;;;6.97;2.22;;;10.30;99.90;;;;;;4881669;29;20508;-72
2022/11/07 03:57:41;;;;;;;7.60;2.10;;;11.10;99.90;;;;;;4897475;29;20044;-74
2022/11/07 04:00:07;;;;;;;;;;;10.30;99.90;;;;;;4900751;29;20572;-72
2022/11/07 04:02:33;;;;;;;6.28;2.00;;;11.10;99.90;;;;;;4899168;29;20462;-72
2022/11/07 04:04:58;;;;;;;8.65;2.25;;;11.20;99.90;;;;;;4900391;29;20164;-73
2022/11/07 04:07:24;;;;;;;7.00;1.92;;;10.60;99.90;;;;;;4915013;29;20071;-74
2022/11/07 04:09:50;;;;;;;7.18;2.30;;;11.10;99.90;;;;;;4884450;29;20048;-72
2022/11/07 04:17:43;;;;;;;4.00;1.80;;;11.00;99.90;;;;;;4887485;29;20392;-74
2022/11/07 04:20:09;;;;;;;7.55;2.05;;;10.80;99.90;;;;;;4865337;29;20049;-72
2022/11/07 04:22:35;;;;;;;7.35;2.22;;;10.90;99.90;;;;;;4883482;29;20091;-73
2022/11/07 04:25:00;;;;;;;7.85;2.20;;;11.00;99.90;;;;;;4883709;29;20052;-72
2022/11/07 04:27:41;;;;;;;8.00;2.67;;;10.30;99.90;;;;;;4884186;29;20043;-80
2022/11/07 04:30:25;;;;;;;7.57;2.58;;;11.00;99.90;;;;;;4905490;29;20139;-79
2022/11/07 04:32:59;;;;;;;5.40;2.22;;;10.10;99.90;;;;;;4891270;29;20040;-79
2022/11/07 04:35:30;;;;;;;7.45;2.50;;;10.10;99.90;;;;;;4922168;29;20048;-79
2022/11/07 04:37:57;;;;;;;7.05;2.20;;;11.00;99.90;;;;;;4912141;29;20067;-79
2022/11/07 04:40:22;;;;;;;;;;;11.00;99.90;;;;;;4885813;29;20044;-80
2022/11/07 04:42:49;;;;;;;6.38;2.40;;;10.20;99.90;;;;;;4915887;29;19930;-81
2022/11/07 04:45:14;;;;;;;;;;;10.90;99.90;;;;;;4900745;29;20051;-78
2022/11/07 04:47:40;;;;;;;6.57;2.28;;;11.00;99.90;;;;;;4901061;29;20557;-81
2022/11/07 04:50:09;;;;;;;7.20;2.40;;;10.30;99.90;;;;;;4915991;29;20083;-79
2022/11/07 04:52:35;;;;;;;7.38;2.17;;;10.40;99.90;;;;;;4898994;29;20048;-79
2022/11/07 04:55:00;;;;;;;7.03;2.33;;;10.30;99.90;;;;;;4912630;29;20113;-80
2022/11/07 04:57:26;;;;;;;9.50;2.75;;;10.30;99.90;;;;;;4909503;29;20047;-80
2022/11/07 04:59:52;;;;;;;7.30;2.38;;;10.90;99.90;;;;;;4915467;29;20551;-79
2022/11/07 05:02:17;;;;;;;7.70;2.67;;;10.30;99.90;;;;;;4903164;29;20519;-79
2022/11/07 05:04:43;;;;;;;7.25;2.72;;;10.90;99.90;;;;;;4898465;29;20044;-80
2022/11/07 05:07:09;;;;;;;5.60;2.45;;;10.50;99.90;;;;;;4914072;29;20044;-79
2022/11/07 05:09:35;;;;;;;4.63;2.00;;;10.60;99.90;;;;;;4914072;29;20040;-78
2022/11/07 05:12:01;;;;;;;5.88;2.20;;;10.40;99.90;;;;;;4915299;29;20043;-78
2022/11/07 05:14:29;;;;;;;6.40;2.00;;;10.40;99.90;;;;;;4897182;29;20080;-79
2022/11/07 05:16:56;;;;;;;5.38;1.95;;;10.30;99.90;;;;;;4898539;29;20519;-80
2022/11/07 05:19:22;;;;;;;7.15;2.30;;;10.40;99.90;;;;;;4896414;29;20051;-79
2022/11/07 05:23:10;;;;;;;7.43;2.30;;;10.70;99.90;;;;;;4914201;29;20103;-79
2022/11/07 05:24:33;;;;;;;6.70;2.60;;;10.80;99.90;;;;;;4897358;29;20052;-79
2022/11/07 05:26:59;;;;;;;6.22;2.22;;;10.50;99.90;;;;;;4914310;29;20044;-79
2022/11/07 05:29:25;;;;;;;7.15;2.38;;;10.20;99.90;;;;;;4898945;29;20054;-80
2022/11/07 05:31:50;;;;;;;6.75;3.25;;;10.20;99.90;;;;;;4898340;29;20055;-79
2022/11/07 05:34:16;;;;;;;7.50;2.40;;;10.70;99.90;;;;;;4899651;29;20410;-79
2022/11/07 05:36:42;;;;;;;6.93;2.40;;;10.80;99.90;;;;;;4896918;29;20441;-79
2022/11/07 05:39:07;;;;;;;6.18;2.40;;;10.60;99.90;;;;;;4897153;29;20055;-79
2022/11/07 05:41:34;;;;;;;7.70;2.30;;;10.10;99.90;;;;;;4897261;29;20060;-79
2022/11/07 05:44:00;;;;;;;7.68;2.83;;;10.50;99.90;;;;;;4912773;29;20059;-80
2022/11/07 05:46:26;;;;;;;5.22;2.25;;;10.50;99.90;;;;;;4890215;29;20094;-81
2022/11/07 05:48:51;;;;;;;5.65;2.33;;;10.60;99.90;;;;;;4897437;29;20052;-80
2022/11/07 05:51:17;;;;;;;7.68;2.83;;;10.50;99.90;;;;;;4898318;29;20473;-79
2022/11/07 05:53:43;;;;;;;7.07;2.72;;;10.30;99.90;;;;;;4914206;29;20055;-79
2022/11/07 05:56:08;;;;;;;7.95;3.00;;;10.20;99.90;;;;;;4898017;29;20434;-78
2022/11/07 05:58:34;;;;;;;7.32;2.95;;;10.60;99.90;;;;;;4879383;29;20404;-79
2022/11/07 06:01:05;;;;;;;7.90;3.20;;;10.40;99.90;;;;;;4900003;29;20047;-81
2022/11/07 06:03:31;;;;;;;6.30;2.50;;;10.50;99.90;;;;;;4897579;29;20059;-80
2022/11/07 06:05:57;;;;;;;;;;;10.70;99.90;;;;;;4898263;29;20122;-73
2022/11/07 06:08:22;;;;;;;6.47;3.10;;;10.70;99.90;;;;;;4884247;29;19926;-72
2022/11/07 06:10:48;;;;;;;7.00;3.30;;;10.60;99.90;;;;;;4898021;29;20092;-73
2022/11/07 06:13:15;;;;;;;6.18;3.25;;;10.30;99.90;;;;;;4904854;29;20111;-72
2022/11/07 06:15:42;;;;;;;8.50;3.70;;;10.70;99.90;;;;;;4885024;29;20054;-72
2022/11/07 06:18:19;;;;;;;9.80;3.97;;;10.50;99.90;;;;;;4897262;29;20427;-72
2022/11/07 06:20:45;;;;;;;6.57;3.10;;;10.30;99.90;;;;;;4875588;29;20040;-73
2022/11/07 06:23:11;;;;;;;7.45;3.40;;;10.50;99.90;;;;;;4883434;29;20046;-72
2022/11/07 06:25:37;;;;;;;9.07;3.72;;;10.80;99.90;;;;;;4883812;29;20374;-72
2022/11/07 06:28:05;;;;;;;7.45;3.33;;;10.30;99.90;;;;;;4909945;29;20127;-74
2022/11/07 06:30:31;;;;;;;6.40;3.00;;;10.60;99.90;;;;;;4889412;29;20044;-73
2022/11/07 06:33:03;;;;;;;7.30;3.17;;;10.30;99.90;;;;;;4897613;29;20040;-72
2022/11/07 06:35:30;;;;;;;9.20;3.80;;;10.60;99.90;;;;;;4910244;29;20408;-72
2022/11/07 06:37:55;;;;;;;;;;;10.50;99.90;;;;;;4895046;29;20071;-73
2022/11/07 06:40:21;;;;;;;4.55;2.75;;;10.70;99.90;;;;;;4894343;29;20328;-71
2022/11/07 06:42:47;;;;;;;10.13;3.63;;;10.20;99.90;;;;;;4888345;29;20400;-72
2022/11/07 06:45:12;;;;;;;6.18;2.90;;;10.30;99.90;;;;;;4879277;29;20048;-73
2022/11/07 06:47:38;;;;;;;6.53;3.08;;;10.40;99.90;;;;;;4880449;29;20059;-72
2022/11/07 06:50:04;;;;;;;7.53;3.70;;;10.20;99.90;;;;;;4878024;29;20507;-73
2022/11/07 06:52:30;;;;;;;5.15;2.55;;;10.30;99.90;;;;;;4899974;29;20058;-73
2022/11/07 06:54:55;;;;;;;9.35;3.13;;;10.20;99.90;;;;;;4906851;29;20048;-72
2022/11/07 06:57:21;;;;;;;6.82;2.88;;;10.20;99.90;;;;;;4895049;29;20085;-73
2022/11/07 06:59:47;;;;;;;6.20;2.78;;;10.20;99.90;;;;;;4916825;29;20539;-72
2022/11/07 07:02:13;;;;;;;5.18;2.60;;;10.60;99.90;;;;;;4906515;29;20190;-73
2022/11/07 07:04:38;;;;;;;7.45;2.67;;;10.20;99.90;;;;;;4901356;29;20036;-73
2022/11/07 07:07:04;;;;;;;3.50;2.22;;;10.20;99.90;;;;;;4900262;29;20181;-74
2022/11/07 07:09:30;;;;;;;5.95;2.63;;;10.60;99.90;;;;;;4901665;29;20396;-75
2022/11/07 07:11:56;;;;;;;5.93;2.30;;;10.30;99.90;;;;;;4903918;29;20103;-75
2022/11/07 07:14:21;;;;;;;7.28;2.47;;;10.40;99.90;;;;;;4881130;29;20071;-75
2022/11/07 07:16:47;;;;;;;5.35;2.60;;;10.30;99.90;;;;;;4901521;29;20039;-75
2022/11/07 07:19:13;;;;;;;6.20;2.20;;;10.30;99.90;;;;;;4897385;29;20408;-74
2022/11/07 07:21:39;;;;;;;4.03;2.10;;;10.20;99.90;;;;;;4914320;29;20480;-75
2022/11/07 07:24:05;;;;;;;6.93;2.60;;;10.20;99.90;;;;;;4866780;29;20044;-75
2022/11/07 07:26:30;;;;;;;3.83;2.30;;;10.70;99.90;;;;;;4868098;29;20040;-72
2022/11/07 07:28:56;;;;;;;7.00;3.17;;;10.50;99.90;;;;;;4881412;29;20403;-73
2022/11/07 07:31:29;;;;;;;6.47;2.50;;;10.70;99.90;;;;;;4891615;29;20202;-74
2022/11/07 07:33:56;;;;;;;8.52;3.35;;;10.20;99.90;;;;;;4921320;29;20055;-75
2022/11/07 07:36:22;;;;;;;9.38;3.30;;;10.50;99.90;;;;;;4884619;29;20392;-73
2022/11/07 07:38:49;;;;;;;7.40;2.75;;;10.50;99.90;;;;;;4900587;29;20048;-73
2022/11/07 07:41:15;;;;;;;6.03;3.53;;;10.30;99.90;;;;;;4916969;29;20123;-74
2022/11/07 07:43:41;;;;;;;;;;;10.70;99.90;;;;;;4917102;29;20056;-74
2022/11/07 07:46:08;;;;;;;7.43;3.30;;;10.50;99.90;;;;;;4916421;29;19923;-73
2022/11/07 07:48:34;;;;;;;6.25;3.40;;;10.70;99.90;;;;;;4900315;29;20131;-73
2022/11/07 07:51:00;;;;;;;7.53;3.78;;;10.50;99.90;;;;;;4916264;29;20158;-73
2022/11/07 07:53:25;;;;;;;8.45;4.10;;;10.40;99.90;;;;;;4900564;29;20057;-72
2022/11/07 07:55:58;;;;;;;9.05;3.92;;;11.00;99.90;;;;;;4900555;29;20048;-74
2022/11/07 07:58:27;;;;;;;8.35;3.60;;;11.00;99.90;;;;;;4900326;29;20135;-73
2022/11/07 08:00:57;;;;;;;4.47;3.00;;;11.00;99.90;;;;;;4915899;29;20458;-74
2022/11/07 08:03:23;;;;;;;7.75;3.15;;;10.50;99.90;;;;;;4915140;29;20578;-72
2022/11/07 08:05:53;;;;;;;;;;;10.70;99.90;;;;;;4900224;29;20055;-73
2022/11/07 08:08:19;;;;;;;6.38;4.10;;;10.50;99.90;;;;;;4899847;29;19923;-72
2022/11/07 08:10:45;;;;;;;9.43;4.70;;;11.00;99.90;;;;;;4899501;29;20450;-72
2022/11/07 08:13:10;;;;;;;8.52;4.40;;;10.70;99.90;;;;;;4899589;29;20044;-72
2022/11/07 08:15:36;;;;;;;8.75;4.25;;;10.70;99.90;;;;;;4899446;29;20055;-72
2022/11/07 08:18:03;;;;;;;6.25;3.55;;;10.70;99.90;;;;;;4901661;29;20103;-80
2022/11/07 08:20:29;;;;;;;6.28;3.72;;;10.90;99.90;;;;;;4919472;29;20058;-81
2022/11/07 08:23:06;;;;;;;10.25;4.50;;;10.80;99.90;;;;;;4903787;29;20043;-82
2022/11/07 08:25:32;;;;;;;9.48;4.10;;;10.70;99.90;;;;;;4902904;29;20381;-71
2022/11/07 08:27:58;;;;;;;11.10;4.63;;;10.80;99.90;;;;;;4871658;29;20256;-73
2022/11/07 08:30:25;;;;;;;10.18;4.45;;;11.00;99.90;;;;;;4918573;29;20052;-72
2022/11/07 08:32:52;;;;;;;8.82;4.55;;;11.10;99.90;;;;;;4918176;29;20047;-71
2022/11/07 08:35:18;;;;;;;12.15;4.82;;;11.20;99.90;;;;;;4918205;29;20522;-73
2022/11/07 08:37:43;;;;;;;10.63;4.75;;;11.20;99.90;;;;;;4902765;29;20040;-72
2022/11/07 08:40:10;;;;;;;9.65;4.20;;;10.60;99.90;;;;;;4918515;29;20040;-72
2022/11/07 08:42:35;;;;;;;9.63;4.70;;;11.00;99.90;;;;;;4915985;29;20043;-74
2022/11/07 08:45:01;;;;;;;7.22;3.63;;;11.20;99.90;;;;;;4871729;29;20051;-72
2022/11/07 08:47:27;;;;;;;7.85;4.38;;;10.90;99.90;;;;;;4902909;29;20054;-73
2022/11/07 08:49:53;;;;;;;10.07;4.00;;;11.10;99.90;;;;;;4902473;29;20048;-72
2022/11/07 08:52:18;;;;;;;8.43;4.20;;;10.80;99.90;;;;;;4902516;29;20103;-73
2022/11/07 08:54:44;;;;;;;8.88;4.22;;;10.80;99.90;;;;;;4871393;29;20467;-73
2022/11/07 08:57:10;;;;;;;11.57;4.40;;;11.10;99.90;;;;;;4902533;29;20134;-73
2022/11/07 08:59:35;;;;;;;7.78;3.83;;;11.10;99.90;;;;;;4902112;29;20043;-73
2022/11/07 09:02:01;;;;;;;7.97;3.90;;;11.30;99.90;;;;;;4907989;29;20048;-72
2022/11/07 09:04:27;;;;;;;6.78;3.97;;;11.20;99.90;;;;;;4899384;29;20044;-73
2022/11/07 09:06:55;;;;;;;10.23;3.97;;;11.30;99.90;;;;;;4899174;29;20520;-72
2022/11/07 09:09:20;;;;;;;8.30;4.00;;;11.10;99.90;;;;;;4898952;29;20476;-73
2022/11/07 09:11:46;;;;;;;9.13;4.20;;;11.00;99.90;;;;;;4899292;29;20044;-73
2022/11/07 09:14:11;;;;;;;7.90;4.10;;;10.90;99.90;;;;;;4894712;29;20476;-74
2022/11/07 09:16:37;;;;;;;11.23;4.13;;;11.40;99.90;;;;;;4886817;29;20487;-73
2022/11/07 09:19:03;;;;;;;10.50;4.07;;;11.10;99.90;;;;;;4901984;29;20054;-73
2022/11/07 09:21:29;;;;;;;9.90;3.85;;;11.60;99.90;;;;;;4886498;29;20051;-72
2022/11/07 09:23:54;;;;;;;14.13;4.05;;;11.60;99.90;;;;;;4870767;29;20051;-72
2022/11/07 09:26:20;;;;;;;10.68;3.88;;;11.30;99.90;;;;;;4886028;29;20571;-73
2022/11/07 09:28:46;;;;;;;7.18;3.90;;;11.40;99.90;;;;;;4886143;29;20127;-73
2022/11/07 09:31:12;;;;;;;9.23;3.45;;;11.70;99.90;;;;;;4886669;29;20458;-73
2022/11/07 09:33:37;;;;;;;11.88;4.20;;;11.60;99.90;;;;;;4917588;29;20087;-72
2022/11/07 09:36:04;;;;;;;6.50;3.00;;;11.50;99.90;;;;;;4917647;29;20467;-73
2022/11/07 09:38:30;;;;;;;8.80;3.30;;;11.50;99.90;;;;;;4901892;29;20071;-73
2022/11/07 09:41:19;;;;;;;7.72;3.25;;;11.50;99.90;;;;;;4916947;29;20504;-75
2022/11/07 09:44:00;;;;;;;9.30;3.53;;;11.70;99.90;;;;;;4914715;29;20429;-75
2022/11/07 09:46:41;;;;;;;9.95;3.40;;;11.80;99.90;;;;;;4898424;29;20051;-73
2022/11/07 09:49:29;;;;;;;10.95;4.07;;;11.80;99.90;;;;;;4914080;29;20103;-73
2022/11/07 09:52:16;;;;;;;8.10;3.30;;;11.90;99.90;;;;;;4904340;29;20048;-74
2022/11/07 09:55:00;;;;;;;10.60;3.57;;;11.70;99.90;;;;;;4895872;29;20051;-82
2022/11/07 09:57:30;;;;;;;8.75;3.60;;;11.90;99.90;;;;;;4895319;29;20584;-81
2022/11/07 10:00:05;;;;;;;10.05;3.40;;;11.80;99.90;;;;;;4880210;29;20051;-82
2022/11/07 10:02:36;;;;;;;8.25;2.90;;;11.80;99.90;;;;;;4895748;29;20071;-80
2022/11/07 10:05:03;;;;;;;9.50;3.42;;;11.70;99.90;;;;;;4895430;29;20048;-82
2022/11/07 10:07:47;;;;;;;9.48;3.15;;;11.80;99.90;;;;;;4901217;29;20047;-80
2022/11/07 10:10:47;;;;;;;6.65;2.83;;;11.90;99.90;;;;;;4914677;29;20048;-81
2022/11/07 10:13:19;;;;;;;13.00;3.70;;;11.80;99.90;;;;;;4914372;29;20503;-81
2022/11/07 10:15:56;;;;;;;9.45;3.47;;;12.00;99.90;;;;;;4914149;29;20040;-81
2022/11/07 10:18:38;;;;;;;9.13;3.20;;;12.00;99.90;;;;;;4898644;29;20052;-81
2022/11/07 10:21:33;;;;;;;9.48;3.40;;;12.00;99.90;;;;;;4914054;29;20130;-81
2022/11/07 10:24:23;;;;;;;9.30;3.00;;;12.00;99.90;;;;;;4913586;29;20051;-75
2022/11/07 10:26:48;;;;;;;9.18;3.28;;;12.00;99.90;;;;;;4913810;29;20060;-74
2022/11/07 10:29:16;;;;;;;6.78;2.63;;;12.20;99.90;;;;;;4914011;29;20047;-74
2022/11/07 10:31:47;;;;;;;7.60;2.97;;;12.20;99.90;;;;;;4913583;29;20040;-75
2022/11/07 10:34:33;;;;;;;11.25;3.35;;;12.30;99.90;;;;;;4913940;29;20052;-74
2022/11/07 10:36:59;;;;;;;7.78;2.75;;;12.20;99.90;;;;;;4913269;29;20056;-74
2022/11/07 10:39:24;;;;;;;7.43;2.70;;;12.20;99.90;;;;;;4897471;29;20056;-76
2022/11/07 10:42:08;;;;;;;8.10;2.80;;;12.20;99.90;;;;;;4887378;29;20131;-74
2022/11/07 10:44:34;;;;;;;8.00;2.80;;;12.30;99.90;;;;;;4894396;29;20390;-74
2022/11/07 10:47:04;;;;;;;7.10;2.65;;;12.30;99.90;;;;;;4879068;29;20060;-74
2022/11/07 10:49:31;;;;;;;11.05;3.08;;;12.40;99.90;;;;;;4879733;29;20056;-74
2022/11/07 10:52:16;;;;;;;11.10;2.90;;;12.50;99.90;;;;;;4894497;29;20091;-73
2022/11/07 10:54:43;;;;;;;8.88;3.05;;;12.50;99.90;;;;;;4894395;29;20060;-72
2022/11/07 10:57:12;;;;;;;12.25;3.00;;;12.50;99.90;;;;;;4894229;29;20059;-74
2022/11/07 10:59:58;;;;;;;9.57;2.67;;;12.50;99.90;;;;;;4894072;29;20059;-75
2022/11/07 11:02:27;;;;;;;7.57;3.00;;;12.40;99.90;;;;;;4905595;29;20160;-74
2022/11/07 11:04:56;;;;;;;12.52;2.97;;;12.40;99.90;;;;;;4913259;29;20506;-74
2022/11/07 11:07:35;;;;;;;7.15;2.28;;;12.40;99.90;;;;;;4913208;29;20067;-74
2022/11/07 11:10:02;;;;;;;11.23;3.05;;;12.40;99.90;;;;;;4913487;29;20048;-74
2022/11/07 11:12:33;;;;;;;5.97;2.10;;;12.30;99.90;;;;;;4897373;29;20096;-74
2022/11/07 11:15:13;;;;;;;11.80;2.75;;;12.30;99.90;;;;;;4897657;29;20091;-73
2022/11/07 11:17:40;;;;;;;8.32;2.50;;;12.30;99.90;;;;;;4912820;29;20051;-74
2022/11/07 11:20:22;;;;;;;;;;;12.30;99.90;;;;;;4913776;29;20048;-74
2022/11/07 11:22:48;;;;;;;6.57;2.20;;;12.30;99.90;;;;;;4928900;29;20411;-74
2022/11/07 11:25:18;;;;;;;8.00;2.75;;;12.30;99.90;;;;;;4881963;29;20048;-74
2022/11/07 11:27:46;;;;;;;6.50;2.40;;;12.40;99.90;;;;;;4913014;29;20131;-74
2022/11/07 11:30:29;;;;;;;7.18;2.50;;;12.40;99.90;;;;;;4912991;29;20205;-74
2022/11/07 11:33:02;;;;;;;8.35;2.50;;;12.50;99.90;;;;;;4892497;29;20135;-74
2022/11/07 11:35:44;;;;;;;8.40;2.67;;;12.50;99.90;;;;;;4875316;29;20049;-74
2022/11/07 11:38:29;;;;;;;6.88;2.53;;;12.50;99.90;;;;;;4876917;29;20204;-75
2022/11/07 11:41:13;;;;;;;4.93;1.90;;;12.60;99.90;;;;;;4895042;29;20528;-74
2022/11/07 11:43:54;;;;;;;7.18;2.38;;;12.60;99.90;;;;;;4894372;29;20093;-74
2022/11/07 11:46:44;;;;;;;10.52;2.47;;;12.70;99.90;;;;;;4879974;29;20375;-80
2022/11/07 11:49:37;;;;;;;10.73;2.88;;;12.80;99.90;;;;;;4894850;29;20055;-80
2022/11/07 11:52:11;;;;;;;11.85;3.05;;;12.80;99.90;;;;;;4879574;29;20409;-75
2022/11/07 11:54:36;;;;;;;10.27;2.92;;;12.90;99.90;;;;;;4894461;29;20045;-75
2022/11/07 11:57:13;;;;;;;6.78;2.60;;;13.00;99.90;;;;;;4880970;29;20411;-75
2022/11/07 11:59:59;;;;;;;10.35;2.90;;;13.00;99.90;;;;;;4915793;29;20088;-74
2022/11/07 12:03:02;;;;;;;5.10;2.45;;;13.10;99.90;;;;;;4916027;29;20052;-74
2022/11/07 12:06:02;;;;;;;7.50;2.60;;;13.10;99.90;;;;;;4900235;29;20055;-74
2022/11/07 12:08:53;;;;;;;6.97;2.40;;;13.20;99.90;;;;;;4916588;29;20047;-75
2022/11/07 12:11:42;;;;;;;9.18;2.70;;;13.40;99.90;;;;;;4916604;29;20378;-72
2022/11/07 12:15:05;;;;;;;6.70;2.35;;;13.50;99.90;;;;;;4915954;29;20048;-73
2022/11/07 12:17:51;;;;;;;9.40;2.50;;;13.50;99.90;;;;;;4880140;29;20465;-73
2022/11/07 12:20:24;;;;;;;10.00;2.67;;;13.40;99.90;;;;;;4880029;29;20052;-74
2022/11/07 12:22:56;;;;;;;6.50;2.28;;;13.50;99.90;;;;;;4885147;29;20088;-74
2022/11/07 12:25:44;;;;;;;6.90;2.40;;;13.50;99.90;;;;;;4897032;29;20044;-73
2022/11/07 12:28:41;;;;;;;7.35;2.50;;;13.60;99.90;;;;;;4896504;29;20052;-74
2022/11/07 12:31:30;;;;;;;6.85;2.83;;;13.70;99.90;;;;;;4896837;29;20044;-74
2022/11/07 12:34:12;;;;;;;8.07;2.30;;;13.70;99.90;;;;;;4896451;29;20076;-74
2022/11/07 12:37:01;;;;;;;7.28;2.65;;;13.80;99.90;;;;;;4896297;29;20068;-76
2022/11/07 12:40:00;;;;;;;7.05;2.95;;;14.20;99.90;;;;;;4896418;29;20064;-75
2022/11/07 12:43:16;;;;;;;8.05;2.88;;;14.30;99.90;;;;;;4897329;29;20104;-74
2022/11/07 12:45:45;;;;;;;7.85;2.55;;;14.40;99.90;;;;;;4899792;29;20146;-73
2022/11/07 12:48:41;;;;;;;7.82;2.70;;;14.30;99.90;;;;;;4884257;29;20163;-74
2022/11/07 12:51:44;;;;;;;4.22;1.92;;;14.20;99.90;;;;;;4898844;29;20044;-73
2022/11/07 12:54:50;;;;;;;6.80;2.53;;;14.20;99.90;;;;;;4918680;29;20130;-74
2022/11/07 12:57:29;;;;;;;5.30;2.35;;;14.30;99.90;;;;;;4903488;29;20077;-74
2022/11/07 13:00:06;;;;;;;8.27;2.80;;;14.30;99.90;;;;;;4917825;29;20134;-73
2022/11/07 13:02:54;;;;;;;4.93;2.03;;;14.30;99.90;;;;;;4917887;29;20039;-73
2022/11/07 13:05:51;;;;;;;6.82;2.20;;;14.20;99.90;;;;;;4917956;29;20052;-74
2022/11/07 13:08:30;;;;;;;5.95;1.90;;;14.00;99.90;;;;;;4902427;29;20051;-75
2022/11/07 13:11:02;;;;;;;7.38;2.20;;;14.00;99.90;;;;;;4901678;29;20043;-74
2022/11/07 13:13:43;;;;;;;4.95;2.00;;;13.90;99.90;;;;;;4899443;29;20369;-74